EGTE

Exeter International Airport

Exeter, United Kingdom

EGTE 110850Z 36014G24KT 330V030 9999 FEW008 BKN012 02/01 Q0982

Observed Flight Rules
Dec-11 @ 08:50 UTC (40 minutes ago) Marginal Visual Flight Rules
Wind Visibility Clouds
360° at 14 knots
 Gusting to 24 knots
10,000+ meters
  • Few at 800' AGL
  • Broken at 1,200' AGL
Temperatures Readings
Current 2°C / 36°F
Dewpoint 1°C / 34°F
Humidity 93%
Altimeter 29" Hg
Pressure 982 hPa
Elevation 30
Observed Flight Rules
Dec-11 @ 08:50 UTC
(40 minutes ago)
MVFR
Wind Visibility
360° at 14 knots
 Gusting to 24 knots
10,000+ meters
Clouds
  • Few at 800' AGL
  • Broken at 1,200' AGL
Temperature Dewpoint
2°C / 36°F 1°C / 34°F
Humidity Altimeter Pressure
93% 29" Hg 982 hPa